Terminal Aerodrome Forecast
Issued by NWS

Home | Current Version | Previous Version | Text Only | Print | Product List | Glossary On
Versions: 1 2 3 4 5 6 7 8 9 10 11 12 13 14 15
000
FTUS42 KMLB 012300
TAFFPR
TAF
KFPR 012338Z 0200/0224 13011KT P6SM SCT300
     FM020900 17008KT P6SM SCT040 BKN120
     FM021400 18012G20KT P6SM VCTS SCT025CB BKN040
     FM021700 20017G24KT P6SM VCTS SCT015CB BKN030 OVC050
     FM022100 24015G22KT P6SM VCSH BKN030 OVC050=

USA.gov is the U.S. government's official web portal to all federal, state and local government web resources and services.